sensor_id;sensor_type;location;lat;lon;timestamp;pressure;altitude;pressure_sealevel;temperature
13410;BMP180;6775;49.574;11.170;2023-08-21T00:01:13;98006.97;;;24.07
13410;BMP180;6775;49.574;11.170;2023-08-21T00:03:41;98006.13;;;24.06
13410;BMP180;6775;49.574;11.170;2023-08-21T00:06:11;98008.75;;;24.06
13410;BMP180;6775;49.574;11.170;2023-08-21T00:08:39;98009.41;;;24.08
13410;BMP180;6775;49.574;11.170;2023-08-21T00:11:09;98024.97;;;24.10
13410;BMP180;6775;49.574;11.170;2023-08-21T00:13:37;98011.84;;;24.10
13410;BMP180;6775;49.574;11.170;2023-08-21T00:16:06;98013.03;;;24.07
13410;BMP180;6775;49.574;11.170;2023-08-21T00:18:34;98006.53;;;24.03
13410;BMP180;6775;49.574;11.170;2023-08-21T00:21:02;98011.78;;;24.03
13410;BMP180;6775;49.574;11.170;2023-08-21T00:23:32;98018.66;;;24.04
13410;BMP180;6775;49.574;11.170;2023-08-21T00:26:00;98007.78;;;24.07
13410;BMP180;6775;49.574;11.170;2023-08-21T00:28:29;98011.84;;;24.10
13410;BMP180;6775;49.574;11.170;2023-08-21T00:31:04;98010.66;;;24.12
13410;BMP180;6775;49.574;11.170;2023-08-21T00:33:33;98013.88;;;24.14
13410;BMP180;6775;49.574;11.170;2023-08-21T00:36:01;98021.75;;;24.14
13410;BMP180;6775;49.574;11.170;2023-08-21T00:38:31;98016.69;;;24.13
13410;BMP180;6775;49.574;11.170;2023-08-21T00:40:59;98016.69;;;24.13
13410;BMP180;6775;49.574;11.170;2023-08-21T00:43:27;98023.13;;;24.10
13410;BMP180;6775;49.574;11.170;2023-08-21T00:45:55;98029.38;;;24.09
13410;BMP180;6775;49.574;11.170;2023-08-21T00:48:24;98027.59;;;24.10
13410;BMP180;6775;49.574;11.170;2023-08-21T00:50:53;98038.09;;;24.10
13410;BMP180;6775;49.574;11.170;2023-08-21T00:53:23;98025.16;;;24.08
13410;BMP180;6775;49.574;11.170;2023-08-21T00:55:53;98027.16;;;24.06
13410;BMP180;6775;49.574;11.170;2023-08-21T00:58:21;98022.91;;;24.05
13410;BMP180;6775;49.574;11.170;2023-08-21T01:00:52;98024.72;;;24.05
13410;BMP180;6775;49.574;11.170;2023-08-21T01:03:20;98026.94;;;24.01
13410;BMP180;6775;49.574;11.170;2023-08-21T01:05:49;98024.44;;;23.93
13410;BMP180;6775;49.574;11.170;2023-08-21T01:08:25;98025.84;;;23.89
13410;BMP180;6775;49.574;11.170;2023-08-21T01:11:08;98023.22;;;23.89
13410;BMP180;6775;49.574;11.170;2023-08-21T01:13:48;98027.84;;;23.87
13410;BMP180;6775;49.574;11.170;2023-08-21T01:16:22;98025.38;;;23.80
13410;BMP180;6775;49.574;11.170;2023-08-21T01:18:52;98035.38;;;23.70
13410;BMP180;6775;49.574;11.170;2023-08-21T01:21:21;98042.09;;;23.58
13410;BMP180;6775;49.574;11.170;2023-08-21T01:23:51;98039.81;;;23.48
13410;BMP180;6775;49.574;11.170;2023-08-21T01:26:19;98046.06;;;23.47
13410;BMP180;6775;49.574;11.170;2023-08-21T01:28:48;98043.25;;;23.49
13410;BMP180;6775;49.574;11.170;2023-08-21T01:31:22;98045.28;;;23.53
13410;BMP180;6775;49.574;11.170;2023-08-21T01:33:59;98051.00;;;23.57
13410;BMP180;6775;49.574;11.170;2023-08-21T01:36:31;98057.47;;;23.61
13410;BMP180;6775;49.574;11.170;2023-08-21T01:39:01;98069.22;;;23.65
13410;BMP180;6775;49.574;11.170;2023-08-21T01:41:30;98072.94;;;23.70
13410;BMP180;6775;49.574;11.170;2023-08-21T01:43:58;98077.00;;;23.73
13410;BMP180;6775;49.574;11.170;2023-08-21T01:46:26;98057.00;;;23.72
13410;BMP180;6775;49.574;11.170;2023-08-21T01:48:54;98055.56;;;23.69
13410;BMP180;6775;49.574;11.170;2023-08-21T01:51:22;98045.25;;;23.68
13410;BMP180;6775;49.574;11.170;2023-08-21T01:53:50;98037.38;;;23.68
13410;BMP180;6775;49.574;11.170;2023-08-21T01:56:20;98041.38;;;23.64
13410;BMP180;6775;49.574;11.170;2023-08-21T01:58:48;98030.03;;;23.63
13410;BMP180;6775;49.574;11.170;2023-08-21T02:01:15;98039.75;;;23.63
13410;BMP180;6775;49.574;11.170;2023-08-21T02:03:45;98029.63;;;23.60
13410;BMP180;6775;49.574;11.170;2023-08-21T02:06:13;98040.88;;;23.54
13410;BMP180;6775;49.574;11.170;2023-08-21T02:08:41;98036.38;;;23.48
13410;BMP180;6775;49.574;11.170;2023-08-21T02:11:09;98039.94;;;23.40
13410;BMP180;6775;49.574;11.170;2023-08-21T02:13:40;98033.38;;;23.30
13410;BMP180;6775;49.574;11.170;2023-08-21T02:16:08;98035.78;;;23.25
13410;BMP180;6775;49.574;11.170;2023-08-21T02:18:36;98039.19;;;23.26
13410;BMP180;6775;49.574;11.170;2023-08-21T02:21:04;98037.38;;;23.26
13410;BMP180;6775;49.574;11.170;2023-08-21T02:23:32;98037.75;;;23.23
13410;BMP180;6775;49.574;11.170;2023-08-21T02:26:00;98038.50;;;23.17
13410;BMP180;6775;49.574;11.170;2023-08-21T02:28:28;98034.22;;;23.10
13410;BMP180;6775;49.574;11.170;2023-08-21T02:30:57;98038.19;;;23.06
13410;BMP180;6775;49.574;11.170;2023-08-21T02:33:25;98030.25;;;22.99
13410;BMP180;6775;49.574;11.170;2023-08-21T02:35:53;98040.13;;;22.97
13410;BMP180;6775;49.574;11.170;2023-08-21T02:38:21;98040.56;;;23.01
13410;BMP180;6775;49.574;11.170;2023-08-21T02:40:49;98039.38;;;23.03
13410;BMP180;6775;49.574;11.170;2023-08-21T02:43:17;98039.81;;;23.07
13410;BMP180;6775;49.574;11.170;2023-08-21T02:45:45;98040.00;;;23.05
13410;BMP180;6775;49.574;11.170;2023-08-21T02:48:15;98043.63;;;23.04
13410;BMP180;6775;49.574;11.170;2023-08-21T02:50:44;98038.75;;;23.01
13410;BMP180;6775;49.574;11.170;2023-08-21T02:53:12;98040.13;;;22.97
13410;BMP180;6775;49.574;11.170;2023-08-21T02:55:40;98039.13;;;22.98
13410;BMP180;6775;49.574;11.170;2023-08-21T02:58:08;98037.75;;;23.02
13410;BMP180;6775;49.574;11.170;2023-08-21T03:00:36;98040.00;;;23.05
13410;BMP180;6775;49.574;11.170;2023-08-21T03:03:04;98036.56;;;23.05
13410;BMP180;6775;49.574;11.170;2023-08-21T03:05:34;98034.75;;;23.05
13410;BMP180;6775;49.574;11.170;2023-08-21T03:08:02;98035.75;;;23.04
13410;BMP180;6775;49.574;11.170;2023-08-21T03:10:30;98024.91;;;23.07
13410;BMP180;6775;49.574;11.170;2023-08-21T03:13:00;98032.38;;;23.10
13410;BMP180;6775;49.574;11.170;2023-08-21T03:15:29;98036.44;;;23.13
13410;BMP180;6775;49.574;11.170;2023-08-21T03:17:57;98042.13;;;23.16
13410;BMP180;6775;49.574;11.170;2023-08-21T03:20:26;98038.50;;;23.17
13410;BMP180;6775;49.574;11.170;2023-08-21T03:22:55;98029.00;;;23.16
13410;BMP180;6775;49.574;11.170;2023-08-21T03:25:23;98036.88;;;23.16
13410;BMP180;6775;49.574;11.170;2023-08-21T03:27:51;98031.03;;;23.14
13410;BMP180;6775;49.574;11.170;2023-08-21T03:30:19;98022.69;;;23.11
13410;BMP180;6775;49.574;11.170;2023-08-21T03:32:48;98031.78;;;23.08
13410;BMP180;6775;49.574;11.170;2023-08-21T03:35:16;98039.63;;;23.08
13410;BMP180;6775;49.574;11.170;2023-08-21T03:37:44;98037.00;;;23.08
13410;BMP180;6775;49.574;11.170;2023-08-21T03:40:13;98036.00;;;23.09
13410;BMP180;6775;49.574;11.170;2023-08-21T03:42:41;98040.25;;;23.10
13410;BMP180;6775;49.574;11.170;2023-08-21T03:45:11;98036.00;;;23.09
13410;BMP180;6775;49.574;11.170;2023-08-21T03:47:39;98036.81;;;23.10
13410;BMP180;6775;49.574;11.170;2023-08-21T03:50:08;98042.06;;;23.10
13410;BMP180;6775;49.574;11.170;2023-08-21T03:52:36;98035.19;;;23.09
13410;BMP180;6775;49.574;11.170;2023-08-21T03:55:05;98038.00;;;23.07
13410;BMP180;6775;49.574;11.170;2023-08-21T03:57:35;98045.25;;;23.05
13410;BMP180;6775;49.574;11.170;2023-08-21T04:00:04;98051.47;;;23.04
13410;BMP180;6775;49.574;11.170;2023-08-21T04:02:34;98050.03;;;23.02
13410;BMP180;6775;49.574;11.170;2023-08-21T04:05:03;98049.44;;;23.00
13410;BMP180;6775;49.574;11.170;2023-08-21T04:07:32;98043.06;;;22.94
13410;BMP180;6775;49.574;11.170;2023-08-21T04:10:00;98060.16;;;22.90
13410;BMP180;6775;49.574;11.170;2023-08-21T04:12:28;98056.94;;;22.88
13410;BMP180;6775;49.574;11.170;2023-08-21T04:14:57;98061.19;;;22.89
13410;BMP180;6775;49.574;11.170;2023-08-21T04:17:25;98061.00;;;22.91
13410;BMP180;6775;49.574;11.170;2023-08-21T04:19:54;98058.38;;;22.91
13410;BMP180;6775;49.574;11.170;2023-08-21T04:22:22;98064.00;;;22.88
13410;BMP180;6775;49.574;11.170;2023-08-21T04:24:50;98062.34;;;22.87
13410;BMP180;6775;49.574;11.170;2023-08-21T04:27:18;98063.16;;;22.87
13410;BMP180;6775;49.574;11.170;2023-08-21T04:29:47;98064.16;;;22.86
13410;BMP180;6775;49.574;11.170;2023-08-21T04:32:16;98068.78;;;22.84
13410;BMP180;6775;49.574;11.170;2023-08-21T04:34:44;98060.66;;;22.80
13410;BMP180;6775;49.574;11.170;2023-08-21T04:37:12;98067.88;;;22.78
13410;BMP180;6775;49.574;11.170;2023-08-21T04:39:40;98065.91;;;22.80
13410;BMP180;6775;49.574;11.170;2023-08-21T04:42:10;98071.16;;;22.80
13410;BMP180;6775;49.574;11.170;2023-08-21T04:44:38;98062.63;;;22.78
13410;BMP180;6775;49.574;11.170;2023-08-21T04:47:25;98073.13;;;22.78
13410;BMP180;6775;49.574;11.170;2023-08-21T04:49:54;98072.75;;;22.80
13410;BMP180;6775;49.574;11.170;2023-08-21T04:52:24;98074.63;;;22.86
13410;BMP180;6775;49.574;11.170;2023-08-21T04:54:53;98075.88;;;22.90
13410;BMP180;6775;49.574;11.170;2023-08-21T04:57:21;98074.91;;;22.91
13410;BMP180;6775;49.574;11.170;2023-08-21T04:59:49;98071.09;;;22.94
13410;BMP180;6775;49.574;11.170;2023-08-21T05:02:17;98082.06;;;22.97
13410;BMP180;6775;49.574;11.170;2023-08-21T05:04:47;98078.06;;;23.01
13410;BMP180;6775;49.574;11.170;2023-08-21T05:07:15;98080.38;;;23.11
13410;BMP180;6775;49.574;11.170;2023-08-21T05:09:43;98080.91;;;23.21
13410;BMP180;6775;49.574;11.170;2023-08-21T05:12:11;98070.47;;;23.27
13410;BMP180;6775;49.574;11.170;2023-08-21T05:14:39;98077.59;;;23.33
13410;BMP180;6775;49.574;11.170;2023-08-21T05:17:07;98081.91;;;23.40
13410;BMP180;6775;49.574;11.170;2023-08-21T05:19:35;98082.16;;;23.45
13410;BMP180;6775;49.574;11.170;2023-08-21T05:22:04;98082.59;;;23.49
13410;BMP180;6775;49.574;11.170;2023-08-21T05:24:33;98083.25;;;23.51
13410;BMP180;6775;49.574;11.170;2023-08-21T05:27:01;98087.66;;;23.50
13410;BMP180;6775;49.574;11.170;2023-08-21T05:29:29;98087.28;;;23.53
13410;BMP180;6775;49.574;11.170;2023-08-21T05:31:57;98088.34;;;23.59
13410;BMP180;6775;49.574;11.170;2023-08-21T05:34:25;98087.44;;;23.66
13410;BMP180;6775;49.574;11.170;2023-08-21T05:36:53;98087.50;;;23.73
13410;BMP180;6775;49.574;11.170;2023-08-21T05:39:23;98086.72;;;23.79
13410;BMP180;6775;49.574;11.170;2023-08-21T05:41:51;98095.47;;;23.85
13410;BMP180;6775;49.574;11.170;2023-08-21T05:44:19;98100.16;;;23.90
13410;BMP180;6775;49.574;11.170;2023-08-21T05:46:47;98093.34;;;23.95
13410;BMP180;6775;49.574;11.170;2023-08-21T05:49:15;98097.22;;;23.99
13410;BMP180;6775;49.574;11.170;2023-08-21T05:51:43;98102.06;;;24.02
13410;BMP180;6775;49.574;11.170;2023-08-21T05:54:11;98099.66;;;24.01
13410;BMP180;6775;49.574;11.170;2023-08-21T05:56:40;98101.03;;;23.97
13410;BMP180;6775;49.574;11.170;2023-08-21T05:59:10;98120.34;;;23.89
13410;BMP180;6775;49.574;11.170;2023-08-21T06:01:39;98117.44;;;23.78
13410;BMP180;6775;49.574;11.170;2023-08-21T06:04:07;98110.56;;;23.77
13410;BMP180;6775;49.574;11.170;2023-08-21T06:06:36;98121.84;;;23.78
13410;BMP180;6775;49.574;11.170;2023-08-21T06:09:04;98117.44;;;23.78
13410;BMP180;6775;49.574;11.170;2023-08-21T06:11:33;98109.56;;;23.78
13410;BMP180;6775;49.574;11.170;2023-08-21T06:14:03;98116.66;;;23.84
13410;BMP180;6775;49.574;11.170;2023-08-21T06:16:31;98110.84;;;23.88
13410;BMP180;6775;49.574;11.170;2023-08-21T06:18:59;98114.34;;;23.95
13410;BMP180;6775;49.574;11.170;2023-08-21T06:21:27;98114.81;;;24.05
13410;BMP180;6775;49.574;11.170;2023-08-21T06:23:55;98113.69;;;24.14
13410;BMP180;6775;49.574;11.170;2023-08-21T06:26:23;98112.97;;;24.27
13410;BMP180;6775;49.574;11.170;2023-08-21T06:28:51;98114.25;;;24.37
13410;BMP180;6775;49.574;11.170;2023-08-21T06:31:20;98121.00;;;24.46
13410;BMP180;6775;49.574;11.170;2023-08-21T06:33:49;98113.16;;;24.52
13410;BMP180;6775;49.574;11.170;2023-08-21T06:36:16;98120.88;;;24.60
13410;BMP180;6775;49.574;11.170;2023-08-21T06:38:44;98112.84;;;24.75
13410;BMP180;6775;49.574;11.170;2023-08-21T06:41:13;98114.53;;;24.88
13410;BMP180;6775;49.574;11.170;2023-08-21T06:43:41;98120.09;;;25.06
13410;BMP180;6775;49.574;11.170;2023-08-21T06:46:11;98118.34;;;25.20
13410;BMP180;6775;49.574;11.170;2023-08-21T06:48:42;98119.97;;;25.27
13410;BMP180;6775;49.574;11.170;2023-08-21T06:51:11;98105.84;;;25.41
13410;BMP180;6775;49.574;11.170;2023-08-21T06:53:43;98116.56;;;25.46
13410;BMP180;6775;49.574;11.170;2023-08-21T06:56:11;98118.81;;;25.49
13410;BMP180;6775;49.574;11.170;2023-08-21T06:58:39;98122.84;;;25.58
13410;BMP180;6775;49.574;11.170;2023-08-21T07:01:07;98123.75;;;25.71
13410;BMP180;6775;49.574;11.170;2023-08-21T07:03:35;98128.59;;;25.81
13410;BMP180;6775;49.574;11.170;2023-08-21T07:06:05;98130.84;;;25.90
13410;BMP180;6775;49.574;11.170;2023-08-21T07:08:33;98120.09;;;25.91
13410;BMP180;6775;49.574;11.170;2023-08-21T07:11:02;98122.53;;;26.06
13410;BMP180;6775;49.574;11.170;2023-08-21T07:13:31;98124.94;;;26.20
13410;BMP180;6775;49.574;11.170;2023-08-21T07:15:59;98128.22;;;26.35
13410;BMP180;6775;49.574;11.170;2023-08-21T07:18:31;98119.66;;;26.46
13410;BMP180;6775;49.574;11.170;2023-08-21T07:20:59;98127.78;;;26.51
13410;BMP180;6775;49.574;11.170;2023-08-21T07:23:29;98131.22;;;26.51
13410;BMP180;6775;49.574;11.170;2023-08-21T07:25:57;98128.97;;;26.55
13410;BMP180;6775;49.574;11.170;2023-08-21T07:28:26;98131.00;;;26.53
13410;BMP180;6775;49.574;11.170;2023-08-21T07:30:57;98132.69;;;26.41
13410;BMP180;6775;49.574;11.170;2023-08-21T07:33:26;98134.09;;;26.31
13410;BMP180;6775;49.574;11.170;2023-08-21T07:35:59;98138.34;;;26.32
13410;BMP180;6775;49.574;11.170;2023-08-21T07:38:29;98131.03;;;26.34
13410;BMP180;6775;49.574;11.170;2023-08-21T07:41:05;98139.38;;;26.37
13410;BMP180;6775;49.574;11.170;2023-08-21T07:43:34;98136.28;;;26.53
13410;BMP180;6775;49.574;11.170;2023-08-21T07:46:03;98133.38;;;26.80
13410;BMP180;6775;49.574;11.170;2023-08-21T07:48:31;98135.53;;;27.09
13410;BMP180;6775;49.574;11.170;2023-08-21T07:50:59;98136.03;;;27.37
13410;BMP180;6775;49.574;11.170;2023-08-21T07:53:29;98134.44;;;27.66
13410;BMP180;6775;49.574;11.170;2023-08-21T07:55:58;98141.22;;;27.87
13410;BMP180;6775;49.574;11.170;2023-08-21T07:58:26;98139.63;;;28.03
13410;BMP180;6775;49.574;11.170;2023-08-21T08:00:54;98139.56;;;28.16
13410;BMP180;6775;49.574;11.170;2023-08-21T08:03:23;98145.03;;;28.39
13410;BMP180;6775;49.574;11.170;2023-08-21T08:05:52;98146.06;;;28.62
13410;BMP180;6775;49.574;11.170;2023-08-21T08:08:22;98137.16;;;28.57
13410;BMP180;6775;49.574;11.170;2023-08-21T08:10:51;98139.69;;;28.70
13410;BMP180;6775;49.574;11.170;2023-08-21T08:13:19;98136.59;;;28.91
13410;BMP180;6775;49.574;11.170;2023-08-21T08:15:47;98133.41;;;29.18
13410;BMP180;6775;49.574;11.170;2023-08-21T08:18:16;98131.91;;;29.28
13410;BMP180;6775;49.574;11.170;2023-08-21T08:20:44;98132.25;;;29.14
13410;BMP180;6775;49.574;11.170;2023-08-21T08:23:12;98131.31;;;29.08
13410;BMP180;6775;49.574;11.170;2023-08-21T08:25:40;98131.16;;;28.86
13410;BMP180;6775;49.574;11.170;2023-08-21T08:28:10;98134.97;;;28.72
13410;BMP180;6775;49.574;11.170;2023-08-21T08:30:38;98141.25;;;28.53
13410;BMP180;6775;49.574;11.170;2023-08-21T08:33:06;98139.19;;;28.37
13410;BMP180;6775;49.574;11.170;2023-08-21T08:35:34;98135.47;;;28.62
13410;BMP180;6775;49.574;11.170;2023-08-21T08:38:02;98136.03;;;29.06
13410;BMP180;6775;49.574;11.170;2023-08-21T08:40:31;98141.63;;;29.46
13410;BMP180;6775;49.574;11.170;2023-08-21T08:42:59;98138.63;;;29.71
13410;BMP180;6775;49.574;11.170;2023-08-21T08:45:30;98139.97;;;29.92
13410;BMP180;6775;49.574;11.170;2023-08-21T08:48:00;98136.63;;;30.07
13410;BMP180;6775;49.574;11.170;2023-08-21T08:50:31;98132.31;;;30.36
13410;BMP180;6775;49.574;11.170;2023-08-21T08:53:00;98134.72;;;30.60
13410;BMP180;6775;49.574;11.170;2023-08-21T08:55:43;98136.91;;;30.63
13410;BMP180;6775;49.574;11.170;2023-08-21T08:58:12;98138.38;;;30.82
13410;BMP180;6775;49.574;11.170;2023-08-21T09:00:41;98133.66;;;31.07
13410;BMP180;6775;49.574;11.170;2023-08-21T09:03:10;98135.56;;;31.22
13410;BMP180;6775;49.574;11.170;2023-08-21T09:05:39;98141.31;;;31.31
13410;BMP180;6775;49.574;11.170;2023-08-21T09:08:12;98135.13;;;31.42
13410;BMP180;6775;49.574;11.170;2023-08-21T09:10:42;98133.38;;;31.19
13410;BMP180;6775;49.574;11.170;2023-08-21T09:13:14;98131.31;;;31.10
13410;BMP180;6775;49.574;11.170;2023-08-21T09:15:47;98125.13;;;31.32
13410;BMP180;6775;49.574;11.170;2023-08-21T09:18:16;98135.09;;;31.53
13410;BMP180;6775;49.574;11.170;2023-08-21T09:20:44;98126.66;;;31.56
13410;BMP180;6775;49.574;11.170;2023-08-21T09:23:15;98124.00;;;31.56
13410;BMP180;6775;49.574;11.170;2023-08-21T09:25:45;98133.78;;;31.67
13410;BMP180;6775;49.574;11.170;2023-08-21T09:28:18;98124.00;;;31.56
13410;BMP180;6775;49.574;11.170;2023-08-21T09:30:50;98116.13;;;31.77
13410;BMP180;6775;49.574;11.170;2023-08-21T09:33:20;98126.09;;;31.98
13410;BMP180;6775;49.574;11.170;2023-08-21T09:35:51;98119.31;;;32.23
13410;BMP180;6775;49.574;11.170;2023-08-21T09:38:20;98109.97;;;32.37
13410;BMP180;6775;49.574;11.170;2023-08-21T09:40:52;98109.53;;;32.62
13410;BMP180;6775;49.574;11.170;2023-08-21T09:43:22;98112.22;;;32.83
13410;BMP180;6775;49.574;11.170;2023-08-21T09:45:55;98103.16;;;33.00
13410;BMP180;6775;49.574;11.170;2023-08-21T09:48:25;98101.25;;;32.96
13410;BMP180;6775;49.574;11.170;2023-08-21T09:50:55;98104.44;;;32.98
13410;BMP180;6775;49.574;11.170;2023-08-21T09:53:24;98105.72;;;32.74
13410;BMP180;6775;49.574;11.170;2023-08-21T09:55:54;98096.78;;;32.85
13410;BMP180;6775;49.574;11.170;2023-08-21T09:58:23;98087.53;;;33.09
13410;BMP180;6775;49.574;11.170;2023-08-21T10:00:57;98091.44;;;33.22
13410;BMP180;6775;49.574;11.170;2023-08-21T10:03:27;98090.84;;;33.20
13410;BMP180;6775;49.574;11.170;2023-08-21T10:05:58;98079.53;;;33.30
13410;BMP180;6775;49.574;11.170;2023-08-21T10:08:28;98084.59;;;33.31
13410;BMP180;6775;49.574;11.170;2023-08-21T10:10:58;98083.59;;;33.37
13410;BMP180;6775;49.574;11.170;2023-08-21T10:13:31;98079.91;;;33.43
13410;BMP180;6775;49.574;11.170;2023-08-21T10:16:02;98073.50;;;33.39
13410;BMP180;6775;49.574;11.170;2023-08-21T10:18:32;98068.16;;;33.39
13410;BMP180;6775;49.574;11.170;2023-08-21T10:21:15;98067.09;;;33.40
13410;BMP180;6775;49.574;11.170;2023-08-21T10:23:47;98067.28;;;33.55
13410;BMP180;6775;49.574;11.170;2023-08-21T10:26:19;98061.03;;;33.71
13410;BMP180;6775;49.574;11.170;2023-08-21T10:28:50;98058.44;;;33.81
13410;BMP180;6775;49.574;11.170;2023-08-21T10:31:32;98067.63;;;33.95
13410;BMP180;6775;49.574;11.170;2023-08-21T10:34:03;98070.53;;;33.93
13410;BMP180;6775;49.574;11.170;2023-08-21T10:39:37;98069.84;;;34.03
13410;BMP180;6775;49.574;11.170;2023-08-21T10:42:09;98068.34;;;34.17
13410;BMP180;6775;49.574;11.170;2023-08-21T10:44:52;98065.03;;;34.05
13410;BMP180;6775;49.574;11.170;2023-08-21T10:47:31;98061.56;;;33.73
13410;BMP180;6775;49.574;11.170;2023-08-21T10:50:02;98054.00;;;33.60
13410;BMP180;6775;49.574;11.170;2023-08-21T10:52:35;98054.28;;;33.64
13410;BMP180;6775;49.574;11.170;2023-08-21T10:55:06;98063.00;;;33.85
13410;BMP180;6775;49.574;11.170;2023-08-21T10:57:35;98052.59;;;34.15
13410;BMP180;6775;49.574;11.170;2023-08-21T11:00:06;98053.47;;;34.25
13410;BMP180;6775;49.574;11.170;2023-08-21T11:02:39;98045.41;;;34.20
13410;BMP180;6775;49.574;11.170;2023-08-21T11:05:09;98048.69;;;34.32
13410;BMP180;6775;49.574;11.170;2023-08-21T11:07:39;98052.00;;;34.44
13410;BMP180;6775;49.574;11.170;2023-08-21T11:10:11;98046.13;;;34.47
13410;BMP180;6775;49.574;11.170;2023-08-21T11:12:51;98046.63;;;34.39
13410;BMP180;6775;49.574;11.170;2023-08-21T11:15:19;98044.16;;;34.38
13410;BMP180;6775;49.574;11.170;2023-08-21T11:17:59;98045.88;;;34.44
13410;BMP180;6775;49.574;11.170;2023-08-21T11:20:29;98039.63;;;34.33
13410;BMP180;6775;49.574;11.170;2023-08-21T11:22:58;98041.69;;;34.21
13410;BMP180;6775;49.574;11.170;2023-08-21T11:25:27;98043.25;;;34.18
13410;BMP180;6775;49.574;11.170;2023-08-21T11:27:56;98034.03;;;33.94
13410;BMP180;6775;49.574;11.170;2023-08-21T11:30:24;98032.28;;;33.78
13410;BMP180;6775;49.574;11.170;2023-08-21T11:33:06;98035.69;;;34.05
13410;BMP180;6775;49.574;11.170;2023-08-21T11:35:35;98030.81;;;34.28
13410;BMP180;6775;49.574;11.170;2023-08-21T11:38:03;98029.50;;;34.40
13410;BMP180;6775;49.574;11.170;2023-08-21T11:40:36;98037.13;;;34.58
13410;BMP180;6775;49.574;11.170;2023-08-21T11:43:04;98035.03;;;34.70
13410;BMP180;6775;49.574;11.170;2023-08-21T11:45:34;98028.66;;;34.81
13410;BMP180;6775;49.574;11.170;2023-08-21T11:48:21;98033.50;;;34.84
13410;BMP180;6775;49.574;11.170;2023-08-21T11:50:49;98030.22;;;34.67
13410;BMP180;6775;49.574;11.170;2023-08-21T11:53:31;98022.69;;;34.59
13410;BMP180;6775;49.574;11.170;2023-08-21T11:55:59;98034.50;;;34.68
13410;BMP180;6775;49.574;11.170;2023-08-21T11:58:28;98032.94;;;34.77
13410;BMP180;6775;49.574;11.170;2023-08-21T12:01:02;98023.56;;;34.70
13410;BMP180;6775;49.574;11.170;2023-08-21T12:03:36;98027.50;;;34.62
13410;BMP180;6775;49.574;11.170;2023-08-21T12:06:07;98028.81;;;34.50
13410;BMP180;6775;49.574;11.170;2023-08-21T12:08:36;98028.94;;;34.33
13410;BMP180;6775;49.574;11.170;2023-08-21T12:11:04;98021.69;;;34.24
13410;BMP180;6775;49.574;11.170;2023-08-21T12:13:32;98023.78;;;34.17
13410;BMP180;6775;49.574;11.170;2023-08-21T12:16:02;98021.13;;;34.22
13410;BMP180;6775;49.574;11.170;2023-08-21T12:18:30;98020.94;;;34.33
13410;BMP180;6775;49.574;11.170;2023-08-21T12:21:00;98019.16;;;34.44
13410;BMP180;6775;49.574;11.170;2023-08-21T12:23:28;98018.13;;;34.55
13410;BMP180;6775;49.574;11.170;2023-08-21T12:25:56;98017.38;;;34.64
13410;BMP180;6775;49.574;11.170;2023-08-21T12:28:24;98013.41;;;34.72
13410;BMP180;6775;49.574;11.170;2023-08-21T12:30:52;98012.66;;;34.81
13410;BMP180;6775;49.574;11.170;2023-08-21T12:33:20;98023.25;;;34.66
13410;BMP180;6775;49.574;11.170;2023-08-21T12:35:50;98019.19;;;34.49
13410;BMP180;6775;49.574;11.170;2023-08-21T12:38:20;98019.97;;;34.44
13410;BMP180;6775;49.574;11.170;2023-08-21T12:40:48;98016.25;;;34.45
13410;BMP180;6775;49.574;11.170;2023-08-21T12:43:16;98011.47;;;34.52
13410;BMP180;6775;49.574;11.170;2023-08-21T12:45:44;98011.16;;;34.44
13410;BMP180;6775;49.574;11.170;2023-08-21T12:48:12;98008.53;;;34.54
13410;BMP180;6775;49.574;11.170;2023-08-21T12:50:41;98004.31;;;34.68
13410;BMP180;6775;49.574;11.170;2023-08-21T12:53:09;98000.06;;;34.72
13410;BMP180;6775;49.574;11.170;2023-08-21T12:55:39;98005.19;;;34.88
13410;BMP180;6775;49.574;11.170;2023-08-21T12:58:07;98010.78;;;34.81
13410;BMP180;6775;49.574;11.170;2023-08-21T13:00:35;98000.84;;;34.72
13410;BMP180;6775;49.574;11.170;2023-08-21T13:03:03;98005.56;;;34.45
13410;BMP180;6775;49.574;11.170;2023-08-21T13:05:32;98004.34;;;34.21
13410;BMP180;6775;49.574;11.170;2023-08-21T13:08:01;98000.03;;;33.79
13410;BMP180;6775;49.574;11.170;2023-08-21T13:10:29;97999.59;;;33.30
13410;BMP180;6775;49.574;11.170;2023-08-21T13:12:59;97995.59;;;33.01
13410;BMP180;6775;49.574;11.170;2023-08-21T13:15:27;97998.63;;;33.15
13410;BMP180;6775;49.574;11.170;2023-08-21T13:17:55;97988.72;;;33.36
13410;BMP180;6775;49.574;11.170;2023-08-21T13:20:23;97997.16;;;33.55
13410;BMP180;6775;49.574;11.170;2023-08-21T13:22:52;97993.56;;;33.70
13410;BMP180;6775;49.574;11.170;2023-08-21T13:25:22;97996.81;;;33.77
13410;BMP180;6775;49.574;11.170;2023-08-21T13:27:51;97981.34;;;33.74
13410;BMP180;6775;49.574;11.170;2023-08-21T13:30:21;97989.06;;;33.76
13410;BMP180;6775;49.574;11.170;2023-08-21T13:32:50;97989.19;;;33.91
13410;BMP180;6775;49.574;11.170;2023-08-21T13:35:18;97977.38;;;33.82
13410;BMP180;6775;49.574;11.170;2023-08-21T13:37:47;97983.03;;;33.54
13410;BMP180;6775;49.574;11.170;2023-08-21T13:40:15;97976.94;;;33.59
13410;BMP180;6775;49.574;11.170;2023-08-21T13:42:46;97971.97;;;33.72
13410;BMP180;6775;49.574;11.170;2023-08-21T13:45:17;97967.78;;;33.81
13410;BMP180;6775;49.574;11.170;2023-08-21T13:47:48;97974.28;;;33.59
13410;BMP180;6775;49.574;11.170;2023-08-21T13:50:18;97965.22;;;33.28
13410;BMP180;6775;49.574;11.170;2023-08-21T13:52:47;97964.41;;;33.28
13410;BMP180;6775;49.574;11.170;2023-08-21T13:55:16;97959.47;;;33.41
13410;BMP180;6775;49.574;11.170;2023-08-21T13:57:45;97948.91;;;33.51
13410;BMP180;6775;49.574;11.170;2023-08-21T14:00:13;97951.00;;;33.49
13410;BMP180;6775;49.574;11.170;2023-08-21T14:02:44;97949.16;;;33.50
13410;BMP180;6775;49.574;11.170;2023-08-21T14:05:14;97939.28;;;33.45
13410;BMP180;6775;49.574;11.170;2023-08-21T14:07:42;97947.31;;;33.24
13410;BMP180;6775;49.574;11.170;2023-08-21T14:10:10;97946.59;;;33.02
13410;BMP180;6775;49.574;11.170;2023-08-21T14:12:40;97949.59;;;33.11
13410;BMP180;6775;49.574;11.170;2023-08-21T14:15:09;97946.00;;;33.26
13410;BMP180;6775;49.574;11.170;2023-08-21T14:17:37;97937.47;;;33.24
13410;BMP180;6775;49.574;11.170;2023-08-21T14:20:07;97936.41;;;33.25
13410;BMP180;6775;49.574;11.170;2023-08-21T14:22:37;97939.16;;;33.35
13410;BMP180;6775;49.574;11.170;2023-08-21T14:25:06;97931.31;;;33.50